createdAt,value
2022-08-23T00:02:27.831Z,60.50
2022-08-23T00:05:07.751Z,60.60
2022-08-23T00:07:39.640Z,60.80
2022-08-23T00:10:13.155Z,60.90
2022-08-23T00:12:41.368Z,60.90
2022-08-23T00:15:12.661Z,61.00
2022-08-23T00:17:39.580Z,61.10
2022-08-23T00:20:10.489Z,61.20
2022-08-23T00:22:38.587Z,61.40
2022-08-23T00:25:07.882Z,60.70
2022-08-23T00:27:35.317Z,61.50
2022-08-23T00:30:07.939Z,61.70
2022-08-23T00:32:37.899Z,61.70
2022-08-23T00:35:07.311Z,61.80
2022-08-23T00:37:35.071Z,61.80
2022-08-23T00:40:02.476Z,61.60
2022-08-23T00:43:02.242Z,61.90
2022-08-23T00:46:21.605Z,62.50
2022-08-23T00:48:48.528Z,63.10
2022-08-23T00:51:50.702Z,61.80
2022-08-23T00:54:23.000Z,62.20
2022-08-23T00:56:51.247Z,61.80
2022-08-23T00:59:18.661Z,62.10
2022-08-23T01:01:45.711Z,62.00
2022-08-23T01:04:14.160Z,62.20
2022-08-23T01:07:07.473Z,62.20
2022-08-23T01:09:34.311Z,63.00
2022-08-23T01:12:11.469Z,62.10
2022-08-23T01:14:52.227Z,62.50
2022-08-23T01:17:38.721Z,62.80
2022-08-23T01:20:22.455Z,63.10
2022-08-23T01:23:05.185Z,63.10
2022-08-23T01:25:34.432Z,62.70
2022-08-23T01:28:01.602Z,62.50
2022-08-23T01:30:32.832Z,62.40
2022-08-23T01:33:05.266Z,62.50
2022-08-23T01:35:46.644Z,62.40
2022-08-23T01:38:14.640Z,62.60
2022-08-23T01:40:43.459Z,62.50
2022-08-23T01:43:12.110Z,62.60
2022-08-23T01:45:39.909Z,62.60
2022-08-23T01:48:07.141Z,62.70
2022-08-23T01:50:35.129Z,62.70
2022-08-23T01:53:02.468Z,62.70
2022-08-23T01:55:29.608Z,62.70
2022-08-23T01:58:00.990Z,63.00
2022-08-23T02:00:34.159Z,63.00
2022-08-23T02:03:01.676Z,63.10
2022-08-23T02:05:29.537Z,62.70
2022-08-23T02:07:56.568Z,62.80
2022-08-23T02:10:23.602Z,62.70
2022-08-23T02:12:50.903Z,62.50
2022-08-23T02:15:18.018Z,62.70
2022-08-23T02:17:44.955Z,62.70
2022-08-23T02:20:12.267Z,62.60
2022-08-23T02:22:39.672Z,62.80
2022-08-23T02:25:07.565Z,62.80
2022-08-23T02:27:34.622Z,62.80
2022-08-23T02:30:02.172Z,62.80
2022-08-23T02:32:29.246Z,62.80
2022-08-23T02:35:04.533Z,62.70
2022-08-23T02:37:32.593Z,62.70
2022-08-23T02:39:59.884Z,62.70
2022-08-23T02:42:26.836Z,62.60
2022-08-23T02:44:53.718Z,62.70
2022-08-23T02:47:20.519Z,62.70
2022-08-23T02:49:47.536Z,62.70
2022-08-23T02:52:14.441Z,62.80
2022-08-23T02:54:41.374Z,62.80
2022-08-23T02:57:08.390Z,63.00
2022-08-23T02:59:35.450Z,63.00
2022-08-23T03:02:02.376Z,63.00
2022-08-23T03:04:29.470Z,63.10
2022-08-23T03:06:56.316Z,63.10
2022-08-23T03:09:23.197Z,63.30
2022-08-23T03:11:50.505Z,63.10
2022-08-23T03:14:17.630Z,63.30
2022-08-23T03:16:44.647Z,63.30
2022-08-23T03:19:12.007Z,63.30
2022-08-23T03:21:39.194Z,63.60
2022-08-23T03:24:10.224Z,63.50
2022-08-23T03:26:38.351Z,63.50
2022-08-23T03:29:05.239Z,63.60
2022-08-23T03:31:32.226Z,63.60
2022-08-23T03:33:59.087Z,63.80
2022-08-23T03:36:28.128Z,63.80
2022-08-23T03:38:56.032Z,63.70
2022-08-23T03:41:23.234Z,64.00
2022-08-23T03:43:50.570Z,64.00
2022-08-23T03:46:23.917Z,64.00
2022-08-23T03:48:55.437Z,64.10
2022-08-23T03:51:24.736Z,64.30
2022-08-23T03:53:52.168Z,64.30
2022-08-23T03:56:26.224Z,64.30
2022-08-23T03:58:54.679Z,64.80
2022-08-23T04:01:25.225Z,64.30
2022-08-23T04:03:54.802Z,64.40
2022-08-23T04:06:21.701Z,64.50
2022-08-23T04:08:48.528Z,64.70
2022-08-23T04:11:15.395Z,64.60
2022-08-23T04:13:43.025Z,64.50
2022-08-23T04:16:10.037Z,64.60
2022-08-23T04:18:37.043Z,64.60
2022-08-23T04:21:12.836Z,64.70
2022-08-23T04:23:40.260Z,65.00
2022-08-23T04:26:09.680Z,64.80
2022-08-23T04:28:37.822Z,64.90
2022-08-23T04:31:05.633Z,65.00
2022-08-23T04:33:33.998Z,64.90
2022-08-23T04:36:03.411Z,65.10
2022-08-23T04:38:30.464Z,65.20
2022-08-23T04:41:16.228Z,65.20
2022-08-23T04:43:46.397Z,65.30
2022-08-23T04:46:15.418Z,65.40
2022-08-23T04:48:44.907Z,65.30
2022-08-23T04:51:12.625Z,65.30
2022-08-23T04:53:40.472Z,65.60
2022-08-23T04:56:08.794Z,65.60
2022-08-23T04:58:38.586Z,65.60
2022-08-23T05:01:08.887Z,65.60
2022-08-23T05:03:36.917Z,65.80
2022-08-23T05:06:07.314Z,65.90
2022-08-23T05:08:34.536Z,65.90
2022-08-23T05:11:07.818Z,65.80
2022-08-23T05:13:36.621Z,66.10
2022-08-23T05:16:04.038Z,65.80
2022-08-23T05:18:32.033Z,65.90
2022-08-23T05:20:59.761Z,65.90
2022-08-23T05:23:32.220Z,65.80
2022-08-23T05:26:00.391Z,65.90
2022-08-23T05:28:35.222Z,66.10
2022-08-23T05:31:11.770Z,66.50
2022-08-23T05:33:41.104Z,66.30
2022-08-23T05:36:10.843Z,66.20
2022-08-23T05:38:39.601Z,66.40
2022-08-23T05:41:07.596Z,66.20
2022-08-23T05:43:35.561Z,66.20
2022-08-23T05:46:12.912Z,66.50
2022-08-23T05:48:43.569Z,67.40
2022-08-23T05:51:29.058Z,66.30
2022-08-23T05:54:02.427Z,66.70
2022-08-23T05:56:42.544Z,66.50
2022-08-23T05:59:16.740Z,66.90
2022-08-23T06:01:44.583Z,66.50
2022-08-23T06:04:13.330Z,66.40
2022-08-23T06:06:42.798Z,66.60
2022-08-23T06:09:14.416Z,66.60
2022-08-23T06:11:43.845Z,66.70
2022-08-23T06:14:11.777Z,66.60
2022-08-23T06:16:46.568Z,66.50
2022-08-23T06:19:14.550Z,66.80
2022-08-23T06:21:42.176Z,66.50
2022-08-23T06:24:09.941Z,66.50
2022-08-23T06:26:42.406Z,66.50
2022-08-23T06:29:13.672Z,66.60
2022-08-23T06:31:47.963Z,66.40
2022-08-23T06:34:33.627Z,66.40
2022-08-23T06:37:17.232Z,66.50
2022-08-23T06:39:44.238Z,66.20
2022-08-23T06:42:38.091Z,66.00
2022-08-23T06:45:04.233Z,66.00
2022-08-23T06:47:31.608Z,65.90
2022-08-23T06:49:58.970Z,65.90
2022-08-23T06:52:27.480Z,65.90
2022-08-23T06:54:54.716Z,65.90
2022-08-23T06:57:21.720Z,65.80
2022-08-23T06:59:50.887Z,65.80
2022-08-23T07:02:17.696Z,65.80
2022-08-23T07:04:44.866Z,65.70
2022-08-23T07:07:12.672Z,65.60
2022-08-23T07:09:41.110Z,65.50
2022-08-23T07:12:09.099Z,65.40
2022-08-23T07:14:38.148Z,65.40
2022-08-23T07:17:05.142Z,65.40
2022-08-23T07:19:34.703Z,65.30
2022-08-23T07:22:04.160Z,65.10
2022-08-23T07:24:33.644Z,65.10
2022-08-23T07:27:06.996Z,65.10
2022-08-23T07:29:39.870Z,65.10
2022-08-23T07:32:07.419Z,65.00
2022-08-23T07:34:34.549Z,64.80
2022-08-23T07:37:01.628Z,64.90
2022-08-23T07:39:31.603Z,64.80
2022-08-23T07:42:08.336Z,64.70
2022-08-23T07:44:52.622Z,64.80
2022-08-23T07:47:20.598Z,64.60
2022-08-23T07:49:47.421Z,64.50
2022-08-23T07:52:14.360Z,64.40
2022-08-23T07:54:41.570Z,64.40
2022-08-23T07:57:12.696Z,64.30
2022-08-23T07:59:46.277Z,64.20
2022-08-23T08:02:18.951Z,64.20
2022-08-23T08:04:53.129Z,64.00
2022-08-23T08:07:37.880Z,63.60
2022-08-23T08:10:16.599Z,63.00
2022-08-23T08:12:50.163Z,63.60
2022-08-23T08:15:19.063Z,63.50
2022-08-23T08:18:01.554Z,63.30
2022-08-23T08:20:29.041Z,62.60
2022-08-23T08:22:59.226Z,62.60
2022-08-23T08:25:27.196Z,62.60
2022-08-23T08:27:54.036Z,62.70
2022-08-23T08:30:20.929Z,62.40
2022-08-23T08:32:47.729Z,62.30
2022-08-23T08:35:14.562Z,62.20
2022-08-23T08:37:41.399Z,62.00
2022-08-23T08:40:09.185Z,61.80
2022-08-23T08:43:32.512Z,61.70
2022-08-23T08:46:15.091Z,61.80
2022-08-23T08:48:50.457Z,61.60
2022-08-23T08:51:47.245Z,61.60
2022-08-23T08:54:22.781Z,61.20
2022-08-23T08:56:57.302Z,61.20
2022-08-23T08:59:46.228Z,61.00
2022-08-23T09:02:31.292Z,60.70
2022-08-23T09:05:20.914Z,60.60
2022-08-23T09:08:02.775Z,60.60
2022-08-23T09:10:58.559Z,60.40
2022-08-23T09:14:07.251Z,60.10
2022-08-23T09:17:02.625Z,59.60
2022-08-23T09:19:37.309Z,59.70
2022-08-23T09:22:20.973Z,59.90
2022-08-23T09:24:47.750Z,59.30
2022-08-23T09:27:14.865Z,59.50
2022-08-23T09:29:58.838Z,59.40
2022-08-23T09:32:32.991Z,59.30
2022-08-23T09:35:22.677Z,59.10
2022-08-23T09:38:12.066Z,59.40
2022-08-23T09:40:49.962Z,58.50
2022-08-23T09:43:26.027Z,58.70
2022-08-23T09:45:58.548Z,58.70
2022-08-23T09:48:36.779Z,58.40
2022-08-23T09:51:15.031Z,58.30
2022-08-23T09:53:49.498Z,58.20
2022-08-23T09:56:27.873Z,58.20
2022-08-23T09:58:54.846Z,57.80
2022-08-23T10:01:38.716Z,58.00
2022-08-23T10:04:21.285Z,57.90
2022-08-23T10:06:49.052Z,57.80
2022-08-23T10:09:42.434Z,57.90
2022-08-23T10:12:09.272Z,57.10
2022-08-23T10:14:37.180Z,57.60
2022-08-23T10:17:35.047Z,57.50
2022-08-23T10:20:30.192Z,57.10
2022-08-23T10:23:15.400Z,56.70
2022-08-23T10:25:58.830Z,56.70
2022-08-23T10:29:18.735Z,56.50
2022-08-23T10:32:23.974Z,56.40
2022-08-23T10:35:17.521Z,56.10
2022-08-23T10:37:56.234Z,56.80
2022-08-23T10:40:40.598Z,56.60
2022-08-23T10:43:26.213Z,56.50
2022-08-23T10:46:00.398Z,56.10
2022-08-23T10:48:55.207Z,56.40
2022-08-23T10:51:31.961Z,55.80
2022-08-23T10:54:09.470Z,56.00
2022-08-23T10:56:42.941Z,55.80
2022-08-23T10:59:25.726Z,55.80
2022-08-23T11:02:29.987Z,55.30
2022-08-23T11:05:05.210Z,55.10
2022-08-23T11:07:41.427Z,54.90
2022-08-23T11:10:17.269Z,55.20
2022-08-23T11:12:58.893Z,55.20
2022-08-23T11:15:46.638Z,54.80
2022-08-23T11:18:42.333Z,54.90
2022-08-23T11:21:17.887Z,54.20
2022-08-23T11:23:59.756Z,54.70
2022-08-23T11:26:26.470Z,54.70
2022-08-23T11:29:08.296Z,54.80
2022-08-23T11:32:13.214Z,54.40
2022-08-23T11:35:01.687Z,54.20
2022-08-23T11:37:49.284Z,54.00
2022-08-23T11:40:39.464Z,54.40
2022-08-23T11:43:38.391Z,53.60
2022-08-23T11:46:25.663Z,53.80
2022-08-23T11:49:25.825Z,53.50
2022-08-23T11:52:19.159Z,54.00
2022-08-23T11:55:13.834Z,53.20
2022-08-23T11:58:23.455Z,52.90
2022-08-23T12:01:10.656Z,53.00
2022-08-23T12:03:59.999Z,53.40
2022-08-23T12:06:58.177Z,52.80
2022-08-23T12:09:25.385Z,52.60
2022-08-23T12:11:55.124Z,53.10
2022-08-23T12:14:36.635Z,53.00
2022-08-23T12:17:25.934Z,52.20
2022-08-23T12:20:09.518Z,52.30
2022-08-23T12:23:15.265Z,52.70
2022-08-23T12:25:42.928Z,51.80
2022-08-23T12:28:52.310Z,52.20
2022-08-23T12:32:20.725Z,51.70
2022-08-23T12:35:44.755Z,51.00
2022-08-23T12:38:27.154Z,51.00
2022-08-23T12:40:55.292Z,51.20
2022-08-23T12:43:26.843Z,51.20
2022-08-23T12:46:01.348Z,51.30
2022-08-23T12:48:33.002Z,51.30
2022-08-23T12:51:07.162Z,51.30
2022-08-23T12:53:45.100Z,51.50
2022-08-23T12:56:31.844Z,51.30
2022-08-23T12:59:05.390Z,51.20
2022-08-23T13:01:38.694Z,51.40
2022-08-23T13:04:14.408Z,51.10
2022-08-23T13:06:49.543Z,50.90
2022-08-23T13:09:36.597Z,51.00
2022-08-23T13:12:06.390Z,50.30
2022-08-23T13:14:54.279Z,50.40
2022-08-23T13:17:27.179Z,49.70
2022-08-23T13:20:01.424Z,50.10
2022-08-23T13:22:31.047Z,50.40
2022-08-23T13:25:32.933Z,50.30
2022-08-23T13:27:56.150Z,49.80
2022-08-23T13:30:26.515Z,50.00
2022-08-23T13:33:13.192Z,50.20
2022-08-23T13:35:49.732Z,49.50
2022-08-23T13:38:32.173Z,49.80
2022-08-23T13:41:10.476Z,49.30
2022-08-23T13:43:52.788Z,49.30
2022-08-23T13:46:27.889Z,49.20
2022-08-23T13:49:10.744Z,49.50
2022-08-23T13:51:41.911Z,49.30
2022-08-23T13:54:15.720Z,49.30
2022-08-23T13:56:53.360Z,49.20
2022-08-23T13:59:33.653Z,49.10
2022-08-23T14:02:08.508Z,49.40
2022-08-23T14:04:35.700Z,49.40
2022-08-23T14:07:02.530Z,49.30
2022-08-23T14:09:29.615Z,49.40
2022-08-23T14:12:03.054Z,49.50
2022-08-23T14:14:34.472Z,49.30
2022-08-23T14:17:03.024Z,49.40
2022-08-23T14:22:18.946Z,49.30
2022-08-23T14:24:45.792Z,49.30
2022-08-23T14:27:12.866Z,49.20
2022-08-23T14:29:39.712Z,49.30
2022-08-23T14:32:06.601Z,49.30
2022-08-23T14:34:33.378Z,49.30
2022-08-23T14:39:47.069Z,49.20
2022-08-23T14:42:20.246Z,49.20
2022-08-23T14:44:47.083Z,49.20
2022-08-23T14:47:13.970Z,49.20
2022-08-23T14:49:40.757Z,49.10
2022-08-23T14:52:07.888Z,49.30
2022-08-23T14:54:35.217Z,49.40
2022-08-23T14:57:02.037Z,49.50
2022-08-23T14:59:28.875Z,49.50
2022-08-23T15:01:56.938Z,49.50
2022-08-23T15:04:25.820Z,49.60
2022-08-23T15:07:18.672Z,49.40
2022-08-23T15:09:49.179Z,49.40
2022-08-23T15:15:12.232Z,49.10
2022-08-23T15:17:48.525Z,49.10
2022-08-23T15:20:15.585Z,49.00
2022-08-23T15:22:55.133Z,49.10
2022-08-23T15:25:24.949Z,49.10
2022-08-23T15:27:52.538Z,49.20
2022-08-23T15:30:20.103Z,49.40
2022-08-23T15:32:52.255Z,49.50
2022-08-23T15:35:20.630Z,49.60
2022-08-23T15:37:49.033Z,49.80
2022-08-23T15:40:16.049Z,49.90
2022-08-23T15:42:42.894Z,50.00
2022-08-23T15:45:10.810Z,50.10
2022-08-23T15:47:51.631Z,50.10
2022-08-23T15:50:23.458Z,50.00
2022-08-23T15:52:50.640Z,50.20
2022-08-23T15:55:18.048Z,50.20
2022-08-23T15:57:49.859Z,50.20
2022-08-23T16:00:19.860Z,50.10
2022-08-23T16:03:14.447Z,50.20
2022-08-23T16:05:35.360Z,50.10
2022-08-23T16:08:02.206Z,50.10
2022-08-23T16:10:29.001Z,50.10
2022-08-23T16:12:56.038Z,50.10
2022-08-23T16:15:23.270Z,50.20
2022-08-23T16:17:50.153Z,50.20
2022-08-23T16:20:17.681Z,50.20
2022-08-23T16:22:44.594Z,50.30
2022-08-23T16:25:11.535Z,50.30
2022-08-23T16:27:38.416Z,50.40
2022-08-23T16:30:07.114Z,50.40
2022-08-23T16:32:33.954Z,50.40
2022-08-23T16:35:00.778Z,50.50
2022-08-23T16:37:27.776Z,50.50
2022-08-23T16:39:54.661Z,50.60
2022-08-23T16:42:21.471Z,50.60
2022-08-23T16:44:48.599Z,50.60
2022-08-23T16:47:16.942Z,50.60
2022-08-23T16:49:43.757Z,50.60
2022-08-23T16:52:11.700Z,50.60
2022-08-23T16:54:39.400Z,50.60
2022-08-23T16:57:06.891Z,50.70
2022-08-23T16:59:39.742Z,50.70
2022-08-23T17:02:10.933Z,50.70
2022-08-23T17:04:38.409Z,50.80
2022-08-23T17:07:06.367Z,50.70
2022-08-23T17:09:33.182Z,50.80
2022-08-23T17:11:59.932Z,50.90
2022-08-23T17:14:27.149Z,51.00
2022-08-23T17:16:55.428Z,50.90
2022-08-23T17:19:22.522Z,50.90
2022-08-23T17:21:49.376Z,51.00
2022-08-23T17:24:17.042Z,51.00
2022-08-23T17:26:43.837Z,51.00
2022-08-23T17:29:12.252Z,51.00
2022-08-23T17:31:39.964Z,51.10
2022-08-23T17:34:06.907Z,51.10
2022-08-23T17:36:39.965Z,51.10
2022-08-23T17:39:12.775Z,51.10
2022-08-23T17:41:44.956Z,51.10
2022-08-23T17:44:13.340Z,51.20
2022-08-23T17:46:44.114Z,51.10
2022-08-23T17:49:12.749Z,51.00
2022-08-23T17:51:43.261Z,51.10
2022-08-23T17:54:12.993Z,51.10
2022-08-23T17:56:42.821Z,51.10
2022-08-23T17:59:18.992Z,51.20
2022-08-23T18:01:46.173Z,51.20
2022-08-23T18:04:13.013Z,51.40
2022-08-23T18:09:08.383Z,51.20
2022-08-23T18:11:36.002Z,52.50
2022-08-23T18:14:04.456Z,52.00
2022-08-23T18:16:35.514Z,52.10
2022-08-23T18:19:05.069Z,52.30
2022-08-23T18:21:33.038Z,52.40
2022-08-23T18:23:59.780Z,52.50
2022-08-23T18:26:46.345Z,52.60
2022-08-23T18:29:14.347Z,52.70
2022-08-23T18:31:44.257Z,52.90
2022-08-23T18:34:13.144Z,53.00
2022-08-23T18:36:40.762Z,53.00
2022-08-23T18:39:09.004Z,53.10
2022-08-23T18:41:36.701Z,53.20
2022-08-23T18:44:05.547Z,53.30
2022-08-23T18:46:39.765Z,53.40
2022-08-23T18:49:09.075Z,53.70
2022-08-23T18:51:36.842Z,53.70
2022-08-23T18:54:04.156Z,53.80
2022-08-23T18:56:31.223Z,53.80
2022-08-23T18:58:59.478Z,54.00
2022-08-23T19:01:31.571Z,54.10
2022-08-23T19:04:01.404Z,54.30
2022-08-23T19:06:29.230Z,54.20
2022-08-23T19:08:56.577Z,54.30
2022-08-23T19:11:24.416Z,54.50
2022-08-23T19:13:51.343Z,54.50
2022-08-23T19:16:21.603Z,54.60
2022-08-23T19:18:49.702Z,54.70
2022-08-23T19:21:21.405Z,54.80
2022-08-23T19:23:51.810Z,54.90
2022-08-23T19:26:23.679Z,55.00
2022-08-23T19:28:50.510Z,55.10
2022-08-23T19:31:17.393Z,55.10
2022-08-23T19:33:44.481Z,55.80
2022-08-23T19:36:23.954Z,55.20
2022-08-23T19:38:56.757Z,55.40
2022-08-23T19:41:23.628Z,55.50
2022-08-23T19:43:50.418Z,55.60
2022-08-23T19:46:17.287Z,55.70
2022-08-23T19:48:46.545Z,55.70
2022-08-23T19:51:16.939Z,55.80
2022-08-23T19:54:04.593Z,55.90
2022-08-23T19:56:49.654Z,56.00
2022-08-23T19:59:23.090Z,56.20
2022-08-23T20:01:51.679Z,56.10
2022-08-23T20:04:20.315Z,56.20
2022-08-23T20:06:48.753Z,56.20
2022-08-23T20:09:16.978Z,56.30
2022-08-23T20:11:43.855Z,56.40
2022-08-23T20:14:11.268Z,56.50
2022-08-23T20:16:41.465Z,56.50
2022-08-23T20:19:10.242Z,56.70
2022-08-23T20:21:39.663Z,56.70
2022-08-23T20:24:13.296Z,56.80
2022-08-23T20:26:46.558Z,56.90
2022-08-23T20:29:18.740Z,57.00
2022-08-23T20:32:06.185Z,56.80
2022-08-23T20:34:34.729Z,57.20
2022-08-23T20:37:05.152Z,57.00
2022-08-23T20:39:32.986Z,57.10
2022-08-23T20:41:59.806Z,57.20
2022-08-23T20:44:26.701Z,57.30
2022-08-23T20:46:55.969Z,57.30
2022-08-23T20:49:25.554Z,57.50
2022-08-23T20:51:52.391Z,58.10
2022-08-23T20:54:20.965Z,57.70
2022-08-23T20:56:51.394Z,57.80
2022-08-23T20:59:19.492Z,58.10
2022-08-23T21:01:47.217Z,58.10
2022-08-23T21:04:14.247Z,58.10
2022-08-23T21:06:48.894Z,58.20
2022-08-23T21:09:20.877Z,58.40
2022-08-23T21:11:50.657Z,58.50
2022-08-23T21:14:20.546Z,58.70
2022-08-23T21:16:48.201Z,58.40
2022-08-23T21:19:16.010Z,58.50
2022-08-23T21:21:43.630Z,58.60
2022-08-23T21:24:11.826Z,58.80
2022-08-23T21:26:39.056Z,58.80
2022-08-23T21:29:07.930Z,59.00
2022-08-23T21:31:35.724Z,59.10
2022-08-23T21:34:02.932Z,59.10
2022-08-23T21:36:30.190Z,59.30
2022-08-23T21:38:57.025Z,59.30
2022-08-23T21:41:42.386Z,59.40
2022-08-23T21:44:13.955Z,60.00
2022-08-23T21:46:42.407Z,59.60
2022-08-23T21:49:12.234Z,59.80
2022-08-23T21:51:40.075Z,59.70
2022-08-23T21:54:09.056Z,59.90
2022-08-23T21:56:37.792Z,60.00
2022-08-23T21:59:07.764Z,60.10
2022-08-23T22:01:36.268Z,60.20
2022-08-23T22:04:07.352Z,60.30
2022-08-23T22:06:35.069Z,60.50
2022-08-23T22:09:03.748Z,60.50
2022-08-23T22:11:30.505Z,60.90
2022-08-23T22:13:57.657Z,60.80
2022-08-23T22:16:24.793Z,60.90
2022-08-23T22:18:51.709Z,61.10
2022-08-23T22:21:18.505Z,61.20
2022-08-23T22:23:45.453Z,61.30
2022-08-23T22:26:13.985Z,61.40
2022-08-23T22:28:44.658Z,61.60
2022-08-23T22:31:14.337Z,61.80
2022-08-23T22:33:43.129Z,61.80
2022-08-23T22:36:16.569Z,61.80
2022-08-23T22:38:45.338Z,62.10
2022-08-23T22:41:18.948Z,62.10
2022-08-23T22:43:46.916Z,62.50
2022-08-23T22:46:13.725Z,62.30
2022-08-23T22:48:40.931Z,62.40
2022-08-23T22:51:19.256Z,62.60
2022-08-23T22:53:51.697Z,63.10
2022-08-23T22:56:26.048Z,63.00
2022-08-23T22:58:53.714Z,63.10
2022-08-23T23:01:30.004Z,62.70
2022-08-23T23:04:00.381Z,63.70
2022-08-23T23:06:28.608Z,63.40
2022-08-23T23:08:56.224Z,63.70
2022-08-23T23:11:24.553Z,63.70
2022-08-23T23:13:51.989Z,63.90
2022-08-23T23:16:24.661Z,64.00
2022-08-23T23:19:11.284Z,64.30
2022-08-23T23:21:44.726Z,64.20
2022-08-23T23:24:16.239Z,64.50
2022-08-23T23:26:44.598Z,64.50
2022-08-23T23:29:14.871Z,64.50
2022-08-23T23:31:41.937Z,64.70
2022-08-23T23:34:09.658Z,64.80
2022-08-23T23:36:37.510Z,65.00
2022-08-23T23:39:06.713Z,65.00
2022-08-23T23:41:33.748Z,65.20
2022-08-23T23:44:00.937Z,65.30
2022-08-23T23:46:28.605Z,65.60
2022-08-23T23:48:55.609Z,65.60
2022-08-23T23:51:28.081Z,65.70
2022-08-23T23:53:57.246Z,66.10
2022-08-23T23:56:28.241Z,66.00
2022-08-23T23:58:56.687Z,66.30
